Time;durP1;ratioP1;P1;durP2;ratioP2;P2;SDS_P1;SDS_P2;PMS_P1;PMS_P2;Temp;Humidity;BMP_temperature;BMP_pressure;BME280_temperature;BME280_humidity;BME280_pressure;Samples;Min_cycle;Max_cycle;Signal;HPM_P1;HPM_P2
2022/06/01 00:01:44;;;;;;;29.95;23.15;;;;;;;8.96;100.00;101202.06;5117332;27;20020;-60
2022/06/01 00:04:10;;;;;;;31.85;24.55;;;;;;;8.86;100.00;101195.75;5113712;28;20455;-63
2022/06/01 00:06:35;;;;;;;32.65;25.88;;;;;;;8.76;100.00;101199.09;5118963;27;20039;-60
2022/06/01 00:09:00;;;;;;;32.15;25.05;;;;;;;8.82;100.00;101199.19;5116339;27;20027;-60
2022/06/01 00:11:26;;;;;;;32.95;26.10;;;;;;;8.85;100.00;101207.16;5103160;28;20040;-60
2022/06/01 00:13:51;;;;;;;33.17;26.13;;;;;;;8.72;100.00;101211.34;5116736;27;20028;-61
2022/06/01 00:16:17;;;;;;;33.28;25.95;;;;;;;8.64;100.00;101205.03;5118976;27;20039;-60
2022/06/01 00:18:43;;;;;;;34.15;27.17;;;;;;;8.61;100.00;101206.72;5119601;28;20478;-60
2022/06/01 00:21:08;;;;;;;32.13;24.13;;;;;;;8.59;100.00;101209.34;5116011;28;20028;-60
2022/06/01 00:23:34;;;;;;;29.25;22.05;;;;;;;8.51;100.00;101209.19;5119468;28;20069;-60
2022/06/01 00:25:59;;;;;;;31.65;24.38;;;;;;;8.62;100.00;101209.41;5118682;28;20046;-60
2022/06/01 00:28:25;;;;;;;28.60;21.15;;;;;;;8.63;100.00;101210.28;5116940;28;20489;-60
2022/06/01 00:30:50;;;;;;;29.85;22.42;;;;;;;8.71;100.00;101201.63;5116290;28;20023;-60
2022/06/01 00:33:16;;;;;;;31.23;24.00;;;;;;;8.87;100.00;101209.84;5117820;28;20023;-61
2022/06/01 00:35:41;;;;;;;32.03;24.60;;;;;;;8.97;100.00;101211.75;5114636;28;20070;-60
2022/06/01 00:38:07;;;;;;;31.42;24.95;;;;;;;9.05;100.00;101218.03;5119495;28;20107;-60
2022/06/01 00:40:33;;;;;;;32.40;24.70;;;;;;;8.98;100.00;101210.00;5118213;28;20073;-61
2022/06/01 00:43:00;;;;;;;34.58;27.83;;;;;;;8.93;100.00;101212.56;5119580;28;20076;-60
2022/06/01 00:45:29;;;;;;;35.03;28.13;;;;;;;8.89;100.00;101210.72;5114614;28;20046;-60
2022/06/01 00:47:56;;;;;;;34.83;27.63;;;;;;;8.85;100.00;101206.25;5120383;27;20080;-60
2022/06/01 00:50:30;;;;;;;35.83;28.20;;;;;;;8.81;100.00;101205.34;5123661;27;20147;-60
2022/06/01 00:53:14;;;;;;;34.00;26.20;;;;;;;8.72;100.00;101210.44;5123049;27;20034;-60
2022/06/01 00:55:46;;;;;;;32.70;25.70;;;;;;;8.64;100.00;101209.41;5121477;27;20027;-60
2022/06/01 00:58:23;;;;;;;34.92;27.08;;;;;;;8.60;100.00;101205.81;5123261;27;20062;-60
2022/06/01 01:00:50;;;;;;;33.65;26.25;;;;;;;8.66;100.00;101208.56;5119063;27;20056;-61
2022/06/01 01:03:17;;;;;;;33.58;25.85;;;;;;;8.73;100.00;101202.53;5122186;27;20027;-60
2022/06/01 01:05:55;;;;;;;34.20;26.92;;;;;;;8.75;100.00;101206.97;5122373;27;20027;-65
2022/06/01 01:08:21;;;;;;;36.00;29.80;;;;;;;8.74;100.00;101206.09;5123353;27;20020;-60
2022/06/01 01:10:46;;;;;;;35.78;28.98;;;;;;;8.67;100.00;101210.34;5118117;27;20448;-60
2022/06/01 01:13:14;;;;;;;36.28;29.13;;;;;;;8.64;100.00;101207.66;5121207;27;20015;-60
2022/06/01 01:15:41;;;;;;;37.83;30.73;;;;;;;8.58;100.00;101210.19;5119462;27;20059;-60
2022/06/01 01:18:10;;;;;;;39.58;31.52;;;;;;;8.65;100.00;101201.53;5119230;27;20054;-61
2022/06/01 01:20:47;;;;;;;37.97;31.40;;;;;;;8.66;100.00;101210.31;5120095;27;20051;-60
2022/06/01 01:23:40;;;;;;;38.05;30.90;;;;;;;8.73;100.00;101202.53;5122489;27;20075;-65
2022/06/01 01:26:06;;;;;;;39.17;31.35;;;;;;;8.75;100.00;101202.56;5119734;27;20023;-62
2022/06/01 01:28:32;;;;;;;39.10;31.85;;;;;;;8.75;100.00;101196.41;5099941;27;20032;-65
2022/06/01 01:31:05;;;;;;;38.40;31.63;;;;;;;8.72;100.00;101203.44;5119319;27;20081;-64
2022/06/01 01:33:31;;;;;;;38.88;30.60;;;;;;;8.69;100.00;101192.84;5121665;27;20023;-64
2022/06/01 01:36:04;;;;;;;39.00;31.52;;;;;;;8.65;100.00;101193.63;5122284;27;20024;-63
2022/06/01 01:38:51;;;;;;;37.03;30.17;;;;;;;8.61;100.00;101194.44;5117838;27;20023;-64
2022/06/01 01:41:47;;;;;;;38.25;29.98;;;;;;;8.52;100.00;101191.66;5118608;27;20023;-64
2022/06/01 01:44:26;;;;;;;37.63;30.25;;;;;;;8.48;100.00;101197.72;5116810;27;20071;-61
2022/06/01 01:46:53;;;;;;;38.15;31.45;;;;;;;8.47;100.00;101195.94;5124876;27;20036;-63
2022/06/01 01:49:31;;;;;;;38.50;32.00;;;;;;;8.49;100.00;101204.72;5122154;27;20511;-63
2022/06/01 01:52:00;;;;;;;40.65;33.55;;;;;;;8.50;100.00;101198.63;5121764;27;20023;-65
2022/06/01 01:54:45;;;;;;;40.75;33.10;;;;;;;8.50;100.00;101202.16;5122371;27;20026;-64
2022/06/01 01:57:33;;;;;;;40.67;32.75;;;;;;;8.57;100.00;101204.91;5121653;27;20032;-63
2022/06/01 02:00:08;;;;;;;40.45;33.20;;;;;;;8.53;100.00;101199.56;5120254;27;20032;-64
2022/06/01 02:02:42;;;;;;;40.72;33.95;;;;;;;8.45;100.00;101198.53;5117789;27;20026;-64
2022/06/01 02:08:29;;;;;;;40.47;33.63;;;;;;;8.33;100.00;101196.53;5125389;27;20050;-64
2022/06/01 02:13:46;;;;;;;43.08;35.42;;;;;;;8.16;100.00;101200.56;5037336;28;20073;-63
2022/06/01 02:16:12;;;;;;;42.83;35.35;;;;;;;8.17;100.00;101199.72;5039087;28;20119;-64
2022/06/01 02:18:43;;;;;;;44.38;36.80;;;;;;;8.12;100.00;101198.72;5039208;28;20029;-63
2022/06/01 02:21:15;;;;;;;45.13;37.03;;;;;;;8.10;100.00;101200.47;5037745;28;20088;-64
2022/06/01 02:23:40;;;;;;;45.30;36.42;;;;;;;8.06;100.00;101198.63;5038382;28;20082;-65
2022/06/01 02:26:06;;;;;;;44.47;36.25;;;;;;;8.01;100.00;101204.69;5039284;28;20442;-64
2022/06/01 02:28:33;;;;;;;47.08;37.35;;;;;;;7.96;100.00;101200.16;5033852;28;20045;-64
2022/06/01 02:31:00;;;;;;;46.88;37.45;;;;;;;7.91;100.00;101205.34;5039189;28;20049;-64
2022/06/01 02:33:32;;;;;;;45.60;37.08;;;;;;;7.89;100.00;101207.03;5035666;28;20083;-60
2022/06/01 02:36:00;;;;;;;45.70;37.60;;;;;;;7.88;100.00;101205.28;5030383;28;20069;-60
2022/06/01 02:38:33;;;;;;;46.28;38.13;;;;;;;7.85;100.00;101205.22;5030478;28;20163;-60
2022/06/01 02:41:00;;;;;;;44.75;36.75;;;;;;;7.76;100.00;101202.38;5036644;28;20033;-60
2022/06/01 02:43:26;;;;;;;46.05;37.25;;;;;;;7.66;100.00;101199.56;5035917;28;20072;-60
2022/06/01 02:45:52;;;;;;;44.83;36.78;;;;;;;7.60;100.00;101207.31;5039210;28;20492;-60
2022/06/01 02:48:17;;;;;;;44.92;37.13;;;;;;;7.55;100.00;101194.91;5097120;27;20096;-61
2022/06/01 02:50:42;;;;;;;43.13;36.38;;;;;;;7.54;100.00;101196.63;5115864;27;20038;-60
2022/06/01 02:53:08;;;;;;;44.55;36.08;;;;;;;7.47;100.00;101203.50;5119373;27;20102;-60
2022/06/01 02:55:34;;;;;;;43.92;36.30;;;;;;;7.46;100.00;101203.47;5121199;27;20027;-60
2022/06/01 02:58:01;;;;;;;43.80;36.42;;;;;;;7.41;100.00;101197.22;5118144;27;20427;-60
2022/06/01 03:00:30;;;;;;;44.70;35.80;;;;;;;7.35;100.00;101199.72;5120256;27;20440;-60
2022/06/01 03:02:59;;;;;;;45.65;37.08;;;;;;;7.33;100.00;101195.28;5120769;27;20023;-60
2022/06/01 03:05:31;;;;;;;44.92;36.25;;;;;;;7.36;100.00;101201.50;5119963;27;20406;-61
2022/06/01 03:07:57;;;;;;;45.33;36.40;;;;;;;7.35;100.00;101200.59;5118800;27;20023;-61
2022/06/01 03:10:23;;;;;;;45.80;37.00;;;;;;;7.31;100.00;101206.63;5118164;27;20528;-60
2022/06/01 03:12:49;;;;;;;45.33;37.00;;;;;;;7.27;100.00;101202.16;5119876;27;20517;-60
2022/06/01 03:15:17;;;;;;;45.88;36.55;;;;;;;7.28;100.00;101206.56;5121674;27;20042;-60
2022/06/01 03:17:43;;;;;;;45.33;36.85;;;;;;;7.27;100.00;101210.06;5121214;27;20477;-61
2022/06/01 03:20:11;;;;;;;45.03;37.03;;;;;;;7.21;100.00;101199.38;5118268;27;20081;-60
2022/06/01 03:22:38;;;;;;;45.75;35.83;;;;;;;7.17;100.00;101208.94;5116162;27;20111;-60
2022/06/01 03:25:08;;;;;;;44.70;36.28;;;;;;;7.17;100.00;101213.31;5115600;27;20051;-61
2022/06/01 03:27:34;;;;;;;44.00;35.22;;;;;;;7.15;100.00;101208.91;5117299;27;20470;-60
2022/06/01 03:30:00;;;;;;;45.45;36.75;;;;;;;7.12;100.00;101211.47;5118519;27;20043;-60
2022/06/01 03:32:25;;;;;;;45.00;36.55;;;;;;;7.06;100.00;101207.78;5122628;27;20435;-60
2022/06/01 03:34:51;;;;;;;46.05;36.20;;;;;;;7.02;100.00;101209.47;5117742;27;20012;-65
2022/06/01 03:37:17;;;;;;;44.63;36.58;;;;;;;7.00;100.00;101207.63;5118395;27;20024;-60
2022/06/01 03:39:42;;;;;;;44.72;35.35;;;;;;;7.00;100.00;101208.50;5123871;27;20467;-60
2022/06/01 03:42:07;;;;;;;44.85;34.00;;;;;;;7.03;100.00;101210.34;5118860;27;20419;-60
2022/06/01 03:47:17;;;;;;;41.83;32.45;;;;;;;7.06;100.00;101210.41;5118926;27;20531;-61
2022/06/01 03:49:42;;;;;;;41.80;32.97;;;;;;;7.05;100.00;101217.41;5119383;27;20102;-61
2022/06/01 03:52:09;;;;;;;40.38;32.47;;;;;;;7.01;100.00;101217.31;5120786;27;20378;-61
2022/06/01 03:54:35;;;;;;;40.50;31.55;;;;;;;7.02;100.00;101203.28;5120348;27;20042;-62
2022/06/01 03:57:01;;;;;;;40.53;31.33;;;;;;;7.00;100.00;101215.53;5120767;27;20050;-62
2022/06/01 03:59:26;;;;;;;41.65;32.40;;;;;;;6.98;100.00;101219.00;5117695;27;20503;-61
2022/06/01 04:01:52;;;;;;;40.78;31.05;;;;;;;7.02;100.00;101213.81;5117610;27;20032;-62
2022/06/01 04:04:17;;;;;;;41.25;31.90;;;;;;;7.05;100.00;101213.88;5120324;27;20027;-61
2022/06/01 04:06:42;;;;;;;41.00;31.90;;;;;;;7.08;100.00;101219.25;5116119;27;20107;-61
2022/06/01 04:09:08;;;;;;;39.83;31.95;;;;;;;7.10;100.00;101214.91;5119736;27;20023;-61
2022/06/01 04:11:33;;;;;;;40.97;30.48;;;;;;;7.17;100.00;101219.47;5120589;27;20015;-62
2022/06/01 04:13:58;;;;;;;39.40;29.85;;;;;;;7.22;100.00;101222.19;5117707;27;20038;-61
2022/06/01 04:16:24;;;;;;;39.72;30.10;;;;;;;7.23;100.00;101213.47;5117646;27;20040;-61
2022/06/01 04:18:49;;;;;;;38.20;29.45;;;;;;;7.22;100.00;101228.31;5116680;28;20023;-61
2022/06/01 04:21:18;;;;;;;40.67;30.92;;;;;;;7.16;100.00;101222.94;5123234;27;20505;-61
2022/06/01 04:23:44;;;;;;;39.20;29.95;;;;;;;7.12;100.00;101221.97;5123390;27;20102;-61
2022/06/01 04:26:09;;;;;;;38.00;29.50;;;;;;;7.11;100.00;101216.69;5123203;27;20165;-62
2022/06/01 04:28:35;;;;;;;40.60;29.50;;;;;;;7.10;100.00;101225.41;5126518;27;20040;-61
2022/06/01 04:31:00;;;;;;;38.90;30.25;;;;;;;7.11;100.00;101224.56;5123820;27;20042;-61
2022/06/01 04:33:29;;;;;;;38.53;29.95;;;;;;;7.15;100.00;101226.44;5123397;27;20038;-61
2022/06/01 04:35:54;;;;;;;39.03;29.48;;;;;;;7.19;100.00;101228.25;5126710;27;20019;-61
2022/06/01 04:38:19;;;;;;;38.40;29.35;;;;;;;7.22;100.00;101222.19;5121054;27;20444;-61
2022/06/01 04:40:48;;;;;;;39.88;30.15;;;;;;;7.27;100.00;101226.72;5124067;27;20027;-61
2022/06/01 04:43:16;;;;;;;48.22;29.88;;;;;;;7.32;100.00;101230.34;5124928;27;20061;-61
2022/06/01 04:45:41;;;;;;;39.35;29.00;;;;;;;7.45;100.00;101231.50;5124044;27;20541;-62
2022/06/01 04:48:07;;;;;;;40.03;29.40;;;;;;;7.54;100.00;101222.94;5123061;27;20023;-61
2022/06/01 04:50:33;;;;;;;40.70;28.85;;;;;;;7.59;100.00;101225.69;5126426;27;20069;-61
2022/06/01 04:52:59;;;;;;;38.80;28.77;;;;;;;7.63;100.00;101230.16;5126198;27;20031;-61
2022/06/01 04:55:25;;;;;;;38.05;27.08;;;;;;;7.64;100.00;101237.19;5123589;27;20028;-61
2022/06/01 04:57:50;;;;;;;38.05;28.15;;;;;;;7.67;100.00;101234.63;5120745;27;20107;-61
2022/06/01 05:00:16;;;;;;;38.70;27.92;;;;;;;7.70;100.00;101232.06;5123505;27;20019;-61
2022/06/01 05:02:42;;;;;;;37.13;27.10;;;;;;;7.72;100.00;101238.28;5119861;27;20386;-61
2022/06/01 05:05:08;;;;;;;36.30;26.70;;;;;;;7.77;100.00;101239.25;5125684;27;20445;-61
2022/06/01 05:07:33;;;;;;;38.20;26.45;;;;;;;7.81;100.00;101241.09;5126181;27;20141;-61
2022/06/01 05:09:59;;;;;;;34.72;24.52;;;;;;;7.83;100.00;101233.22;5125077;27;20110;-61
2022/06/01 05:12:24;;;;;;;36.50;25.00;;;;;;;7.87;100.00;101234.19;5119794;27;20026;-62
2022/06/01 05:14:50;;;;;;;35.50;24.85;;;;;;;7.91;100.00;101231.66;5127564;27;20363;-61
2022/06/01 05:17:15;;;;;;;34.63;24.38;;;;;;;7.92;100.00;101228.19;5123233;27;20080;-61
2022/06/01 05:19:40;;;;;;;33.28;23.20;;;;;;;7.94;100.00;101237.00;5124989;27;20024;-62
2022/06/01 05:22:06;;;;;;;34.50;23.63;;;;;;;7.99;100.00;101229.19;5127226;27;20496;-63
2022/06/01 05:24:31;;;;;;;33.67;23.30;;;;;;;8.02;100.00;101232.78;5123193;27;20462;-60
2022/06/01 05:26:56;;;;;;;32.80;22.42;;;;;;;8.11;100.00;101224.19;5124202;27;20027;-61
2022/06/01 05:29:22;;;;;;;33.65;22.52;;;;;;;8.14;100.00;101229.50;5126608;27;20039;-64
2022/06/01 05:31:48;;;;;;;33.80;22.65;;;;;;;8.24;100.00;101229.69;5124526;27;20023;-64
2022/06/01 05:34:15;;;;;;;31.25;21.10;;;;;;;8.29;100.00;101234.19;5122591;27;20550;-62
2022/06/01 05:36:41;;;;;;;32.28;22.73;;;;;;;8.38;100.00;101234.38;5118837;27;20114;-61
2022/06/01 05:39:06;;;;;;;34.83;22.83;;;;;;;8.48;100.00;101235.47;5119437;27;20118;-62
2022/06/01 05:41:32;;;;;;;33.67;22.58;;;;;;;8.59;100.00;101238.34;5121198;27;20024;-66
2022/06/01 05:43:57;;;;;;;30.58;21.52;;;;;;;8.62;100.00;101227.84;5121257;27;20019;-64
2022/06/01 05:46:23;;;;;;;30.92;20.92;;;;;;;8.68;100.00;101232.34;5120423;27;20465;-67
2022/06/01 05:48:48;;;;;;;32.63;21.27;;;;;;;8.75;100.00;101235.97;5118655;27;20122;-68
2022/06/01 05:51:14;;;;;;;30.83;20.65;;;;;;;8.83;100.00;101240.50;5122882;27;20060;-67
2022/06/01 05:53:39;;;;;;;31.23;20.52;;;;;;;8.90;100.00;101239.75;5120800;27;20043;-68
2022/06/01 05:56:04;;;;;;;30.30;19.98;;;;;;;9.01;100.00;101239.97;5120297;27;20031;-69
2022/06/01 05:58:30;;;;;;;31.50;20.55;;;;;;;9.08;100.00;101244.44;5119615;27;20153;-68
2022/06/01 06:01:00;;;;;;;31.73;20.65;;;;;;;9.26;100.00;101245.59;5119687;27;20023;-70
2022/06/01 06:03:26;;;;;;;30.85;20.30;;;;;;;9.37;100.00;101241.41;5121054;27;20142;-69
2022/06/01 06:06:12;;;;;;;29.75;19.30;;;;;;;9.43;100.00;101244.13;5082007;27;20072;-70
2022/06/01 06:08:39;;;;;;;31.70;19.88;;;;;;;9.58;100.00;101255.78;5120658;27;20423;-69
2022/06/01 06:11:06;;;;;;;31.55;20.33;;;;;;;9.77;100.00;101242.00;5103583;28;20115;-68
2022/06/01 06:13:33;;;;;;;31.35;19.27;;;;;;;9.81;100.00;101244.69;5120478;27;20080;-71
2022/06/01 06:15:59;;;;;;;29.90;18.77;;;;;;;9.91;100.00;101244.81;5120439;27;20027;-68
2022/06/01 06:18:24;;;;;;;30.27;18.88;;;;;;;9.95;100.00;101251.03;5121626;27;20023;-67
2022/06/01 06:20:50;;;;;;;31.08;20.05;;;;;;;10.10;100.00;101256.50;5119550;27;20394;-66
2022/06/01 06:23:16;;;;;;;32.78;19.45;;;;;;;10.18;100.00;101253.06;5121729;27;20076;-69
2022/06/01 06:25:42;;;;;;;28.45;18.48;;;;;;;10.20;100.00;101259.28;5100802;28;20035;-76
2022/06/01 06:28:08;;;;;;;30.13;19.20;;;;;;;10.30;100.00;101259.41;5124113;27;20027;-69
2022/06/01 06:30:35;;;;;;;29.80;18.85;;;;;;;10.37;100.00;101260.41;5120707;27;20032;-70
2022/06/01 06:33:00;;;;;;;29.90;19.10;;;;;;;10.50;100.00;101260.53;5115485;27;20105;-69
2022/06/01 06:35:25;;;;;;;30.52;18.25;;;;;;;10.57;100.00;101276.50;5118374;27;20070;-68
2022/06/01 06:37:51;;;;;;;30.25;18.20;;;;;;;10.63;100.00;101281.84;5119366;27;20478;-68
2022/06/01 06:40:16;;;;;;;28.83;17.70;;;;;;;10.67;100.00;101280.13;5120186;27;20363;-70
2022/06/01 06:42:42;;;;;;;29.40;18.35;;;;;;;10.76;100.00;101285.53;5119344;27;20027;-64
2022/06/01 06:45:07;;;;;;;28.02;17.25;;;;;;;10.82;100.00;101290.00;5117754;27;20096;-63
2022/06/01 06:47:34;;;;;;;28.05;17.20;;;;;;;10.90;100.00;101298.88;5119528;27;20020;-64
2022/06/01 06:50:00;;;;;;;28.30;17.42;;;;;;;10.93;100.00;101298.03;5118783;27;20390;-65
2022/06/01 06:52:26;;;;;;;29.35;17.70;;;;;;;11.02;100.00;101295.47;5119627;27;20030;-64
2022/06/01 06:54:52;;;;;;;26.73;14.98;;;;;;;11.08;100.00;101302.56;5116818;27;20024;-63
2022/06/01 06:57:17;;;;;;;26.45;15.00;;;;;;;11.13;100.00;101296.44;5120622;27;20132;-64
2022/06/01 06:59:43;;;;;;;28.25;15.55;;;;;;;11.23;100.00;101296.56;5120458;27;20431;-64
2022/06/01 07:02:08;;;;;;;24.83;12.65;;;;;;;11.24;100.00;101296.56;5120396;27;20032;-64
2022/06/01 07:04:35;;;;;;;27.75;14.65;;;;;;;11.41;100.00;101301.97;5118636;27;20023;-65
2022/06/01 07:07:01;;;;;;;24.67;14.20;;;;;;;11.44;100.00;101306.44;5121272;27;20031;-63
2022/06/01 07:09:26;;;;;;;25.88;14.68;;;;;;;11.49;100.00;101300.28;5121189;27;20430;-64
2022/06/01 07:11:51;;;;;;;24.95;14.60;;;;;;;11.53;100.00;101311.78;5114755;27;20023;-64
2022/06/01 07:14:17;;;;;;;27.30;16.30;;;;;;;11.69;100.00;101308.41;5118991;27;20081;-65
2022/06/01 07:16:42;;;;;;;26.27;14.98;;;;;;;11.88;100.00;101299.66;5118988;27;20032;-64
2022/06/01 07:19:08;;;;;;;25.13;15.20;;;;;;;12.00;100.00;101307.75;5117400;27;20458;-65
2022/06/01 07:21:36;;;;;;;26.20;14.98;;;;;;;11.84;100.00;101307.59;5121680;27;20030;-66
2022/06/01 07:24:04;;;;;;;24.75;14.38;;;;;;;11.73;100.00;101300.47;5117293;27;20462;-65
2022/06/01 07:26:34;;;;;;;25.00;14.10;;;;;;;11.68;100.00;101311.91;5119386;27;20109;-65
2022/06/01 07:29:00;;;;;;;25.63;14.40;;;;;;;11.73;100.00;101305.75;5118501;27;20051;-64
2022/06/01 07:31:25;;;;;;;25.60;15.15;;;;;;;11.85;100.00;101308.47;5121204;27;20045;-64
2022/06/01 07:33:53;;;;;;;26.50;14.98;;;;;;;12.12;100.00;101310.44;5120619;27;20024;-64
2022/06/01 07:36:20;;;;;;;25.58;14.90;;;;;;;12.26;100.00;101314.94;5120005;27;20382;-65
2022/06/01 07:44:22;;;;;;;25.75;14.27;;;;;;;12.58;100.00;101315.06;5117701;27;20031;-69
2022/06/01 07:46:48;;;;;;;26.73;14.40;;;;;;;12.67;100.00;101311.59;5118425;27;20027;-70
2022/06/01 07:49:13;;;;;;;24.23;13.30;;;;;;;12.79;100.00;101308.06;5118942;27;20468;-67
2022/06/01 07:51:39;;;;;;;24.55;12.60;;;;;;;12.95;100.00;101301.03;5119359;27;20110;-68
2022/06/01 07:54:06;;;;;;;24.23;12.45;;;;;;;13.23;100.00;101308.13;5119203;27;20386;-67
2022/06/01 07:56:32;;;;;;;23.60;11.68;;;;;;;13.36;100.00;101308.19;5118554;27;20031;-62
2022/06/01 07:58:57;;;;;;;24.08;12.55;;;;;;;13.59;100.00;101310.84;5114556;27;20020;-66
2022/06/01 08:01:25;;;;;;;20.58;10.07;;;;;;;13.51;100.00;101320.56;5118651;27;20060;-66
2022/06/01 08:03:58;;;;;;;21.10;10.40;;;;;;;13.56;100.00;101317.03;5122268;27;20057;-65
2022/06/01 08:06:26;;;;;;;21.50;10.20;;;;;;;13.88;100.00;101318.75;5121320;27;20027;-67
2022/06/01 08:08:52;;;;;;;20.50;9.05;;;;;;;14.30;100.00;101316.00;5111572;27;20121;-66
2022/06/01 08:11:18;;;;;;;20.45;9.65;;;;;;;14.17;100.00;101317.81;5113890;27;20062;-67
2022/06/01 08:13:43;;;;;;;21.25;10.98;;;;;;;13.99;100.00;101320.50;5114904;27;20527;-70
2022/06/01 08:16:08;;;;;;;21.45;10.93;;;;;;;14.15;100.00;101319.56;5116080;28;20027;-71
2022/06/01 08:18:36;;;;;;;21.20;11.40;;;;;;;14.17;100.00;101319.56;5117264;27;20373;-72
2022/06/01 08:21:02;;;;;;;22.00;10.88;;;;;;;14.01;100.00;101318.72;5111221;28;20031;-69
2022/06/01 08:23:30;;;;;;;21.15;10.80;;;;;;;14.12;100.00;101312.50;5112109;28;20035;-69
2022/06/01 08:25:56;;;;;;;21.23;9.45;;;;;;;14.25;100.00;101310.66;5117974;28;20033;-70
2022/06/01 08:28:22;;;;;;;19.90;8.13;;;;;;;14.54;100.00;101304.34;5116113;28;20035;-67
2022/06/01 08:30:48;;;;;;;20.98;9.07;;;;;;;14.38;100.00;101318.63;5116151;28;20039;-70
2022/06/01 08:33:15;;;;;;;19.60;8.48;;;;;;;14.46;100.00;101311.50;5117023;28;20027;-69
2022/06/01 08:35:45;;;;;;;18.55;6.95;;;;;;;14.37;100.00;101316.84;5118613;28;20024;-70
2022/06/01 08:38:10;;;;;;;19.65;8.75;;;;;;;14.37;100.00;101300.88;5116250;28;20111;-69
2022/06/01 08:41:04;;;;;;;19.88;8.70;;;;;;;14.36;100.00;101307.09;5117871;28;20055;-69
2022/06/01 08:43:46;;;;;;;18.88;8.18;;;;;;;14.41;100.00;101314.16;5109804;28;20042;-64
2022/06/01 08:46:13;;;;;;;19.30;8.55;;;;;;;14.57;100.00;101301.69;5110933;28;20055;-65
2022/06/01 08:48:47;;;;;;;20.55;9.18;;;;;;;14.70;100.00;101304.31;5112125;28;20076;-62
2022/06/01 08:51:13;;;;;;;20.48;9.02;;;;;;;14.84;100.00;101299.81;5122373;28;20039;-67
2022/06/01 08:53:39;;;;;;;21.15;10.45;;;;;;;14.79;100.00;101301.59;5122706;28;20415;-67
2022/06/01 08:56:13;;;;;;;21.30;9.98;;;;;;;14.70;100.00;101306.97;5122613;28;20114;-68
2022/06/01 08:58:58;;;;;;;20.23;8.50;;;;;;;14.60;100.00;101309.63;5122613;28;20027;-67
2022/06/01 09:01:44;;;;;;;18.92;7.45;;;;;;;14.94;100.00;101313.91;5119326;28;20154;-68
2022/06/01 09:04:34;;;;;;;19.20;8.23;;;;;;;15.42;100.00;101319.81;5121239;28;20034;-67
2022/06/01 09:07:18;;;;;;;19.70;8.70;;;;;;;16.03;100.00;101317.47;5118606;27;20054;-68
2022/06/01 09:10:01;;;;;;;20.30;8.10;;;;;;;16.21;100.00;101322.63;5124397;27;20049;-67
2022/06/01 09:12:27;;;;;;;18.35;6.50;;;;;;;16.09;100.00;101313.84;5116597;27;20062;-61
2022/06/01 09:14:56;;;;;;;16.77;6.10;;;;;;;16.14;100.00;101317.38;5120365;27;20073;-65
2022/06/01 09:17:22;;;;;;;18.63;6.80;;;;;;;16.13;100.00;101315.59;5119065;27;20030;-65
2022/06/01 09:22:38;;;;;;;19.00;7.50;;;;;;;15.74;96.77;101317.75;5116452;27;20520;-68
2022/06/01 09:25:08;;;;;;;17.70;7.68;;;;;;;15.89;100.00;101312.31;5119553;27;20059;-68
2022/06/01 09:27:41;;;;;;;19.25;7.90;;;;;;;16.22;100.00;101310.16;5122565;27;20118;-68
2022/06/01 09:30:24;;;;;;;18.60;7.53;;;;;;;16.41;100.00;101331.28;5119435;27;20050;-66
2022/06/01 09:33:02;;;;;;;17.42;6.18;;;;;;;16.47;99.95;101331.19;5118651;27;20043;-69
2022/06/01 09:35:33;;;;;;;11.43;3.70;;;;;;;15.86;96.76;101333.66;5122048;27;20035;-70
2022/06/01 09:38:03;;;;;;;9.93;3.90;;;;;;;14.94;100.00;101337.88;5121784;27;20020;-66
2022/06/01 09:40:34;;;;;;;12.18;4.28;;;;;;;14.31;100.00;101341.69;5099575;27;20027;-69
2022/06/01 09:43:00;;;;;;;10.90;4.00;;;;;;;13.81;100.00;101346.22;5118540;27;20386;-67
2022/06/01 09:45:33;;;;;;;13.52;4.53;;;;;;;13.46;100.00;101347.13;5118799;27;20026;-67
2022/06/01 09:48:17;;;;;;;11.73;4.40;;;;;;;13.58;100.00;101336.47;5117938;27;20073;-67
2022/06/01 09:50:45;;;;;;;13.40;4.50;;;;;;;13.92;100.00;101328.50;5117377;27;20030;-65
2022/06/01 09:53:10;;;;;;;11.70;4.10;;;;;;;14.41;100.00;101337.22;5118855;27;20064;-64
2022/06/01 09:55:51;;;;;;;9.60;3.60;;;;;;;15.21;100.00;101334.16;5120152;27;20028;-65
2022/06/01 10:06:53;;;;;;;9.20;3.35;;;;;;;14.47;100.00;101367.34;5118003;27;20099;-63
2022/06/01 10:09:25;;;;;;;16.40;4.50;;;;;;;14.18;100.00;101385.16;5116760;27;20024;-62
2022/06/01 10:11:52;;;;;;;16.83;4.90;;;;;;;13.80;100.00;101379.00;5116728;27;20467;-61
2022/06/01 10:14:27;;;;;;;21.08;6.50;;;;;;;13.46;100.00;101400.25;5119360;27;20020;-65
2022/06/01 10:17:08;;;;;;;23.70;8.38;;;;;;;12.65;100.00;101414.97;5123363;27;20034;-61
2022/06/01 10:20:12;;;;;;;20.08;9.27;;;;;;;12.12;100.00;101413.81;5121817;27;20023;-62
2022/06/01 10:22:44;;;;;;;20.42;10.10;;;;;;;10.88;100.00;101405.50;5118347;27;20120;-60
2022/06/01 10:25:25;;;;;;;21.95;10.95;;;;;;;10.47;100.00;101412.06;5120049;27;20052;-61
2022/06/01 10:27:57;;;;;;;21.65;11.98;;;;;;;10.38;100.00;101407.56;5119056;27;20026;-62
2022/06/01 10:30:26;;;;;;;21.10;10.18;;;;;;;10.33;100.00;101400.38;5116524;27;20454;-61
2022/06/01 10:33:15;;;;;;;19.90;8.45;;;;;;;10.32;100.00;101396.84;5120598;27;20040;-61
2022/06/01 10:36:12;;;;;;;19.13;8.52;;;;;;;10.36;100.00;101385.47;5116253;27;20043;-60
2022/06/01 10:38:55;;;;;;;20.27;8.70;;;;;;;10.58;100.00;101381.34;5120406;27;20046;-61
2022/06/01 10:41:24;;;;;;;;;;;;;;;10.76;100.00;101385.09;5121119;27;20106;-60
2022/06/01 10:44:11;;;;;;;18.70;7.47;;;;;;;11.06;100.00;101374.00;5126124;27;20301;-60
2022/06/01 10:46:53;;;;;;;17.95;7.05;;;;;;;11.34;100.00;101374.28;5126079;27;20138;-60
2022/06/01 10:49:37;;;;;;;17.60;6.68;;;;;;;12.14;100.00;101382.00;5119745;27;20038;-61
2022/06/01 10:52:15;;;;;;;18.35;7.45;;;;;;;13.21;100.00;101370.09;5124278;27;20015;-60
2022/06/01 10:55:03;;;;;;;17.75;6.38;;;;;;;15.02;100.00;101380.44;5126141;27;20038;-60
2022/06/01 10:57:28;;;;;;;16.85;6.00;;;;;;;16.04;100.00;101378.78;5122488;27;20039;-63
2022/06/01 10:59:54;;;;;;;16.95;5.70;;;;;;;16.48;100.00;101384.53;5125375;27;20487;-60
2022/06/01 11:03:08;;;;;;;18.67;6.43;;;;;;;16.02;100.00;101391.25;5123159;27;20030;-61
2022/06/01 11:06:00;;;;;;;17.45;6.40;;;;;;;15.02;100.00;101388.44;5070162;28;20040;-61
2022/06/01 11:08:50;;;;;;;17.02;6.68;;;;;;;14.29;100.00;101383.38;5069124;28;20067;-61
2022/06/01 11:11:28;;;;;;;17.70;7.20;;;;;;;13.76;100.00;101372.81;5067617;28;20035;-61
2022/06/01 11:14:07;;;;;;;18.77;7.45;;;;;;;13.45;100.00;101369.25;5068640;28;20028;-60
2022/06/01 11:16:38;;;;;;;18.08;7.40;;;;;;;13.29;100.00;101375.41;5067548;28;20040;-62
2022/06/01 11:19:23;;;;;;;18.58;7.65;;;;;;;13.62;100.00;101363.06;5066412;28;20567;-61
2022/06/01 11:22:07;;;;;;;20.25;7.00;;;;;;;14.16;100.00;101371.88;5068090;28;20021;-60
2022/06/01 11:25:07;;;;;;;16.02;5.82;;;;;;;15.15;100.00;101367.03;5070014;28;20107;-61
2022/06/01 11:27:49;;;;;;;15.27;5.75;;;;;;;16.77;100.00;101372.63;5068289;28;20059;-63
2022/06/01 11:30:19;;;;;;;14.17;5.37;;;;;;;16.98;100.00;101376.84;5067379;28;20049;-62
2022/06/01 11:33:03;;;;;;;11.05;4.45;;;;;;;17.57;100.00;101387.53;5070408;28;20616;-63
2022/06/01 11:35:39;;;;;;;13.20;4.57;;;;;;;19.37;100.00;101395.66;5070982;28;20392;-63
2022/06/01 11:38:49;;;;;;;7.43;3.60;;;;;;;20.92;78.57;101391.59;5070654;28;20554;-62
2022/06/01 11:41:24;;;;;;;6.72;3.50;;;;;;;20.61;71.63;101393.34;4977332;28;20587;-63
2022/06/01 11:43:58;;;;;;;6.68;3.10;;;;;;;20.73;72.86;101398.38;5001025;28;20042;-63
2022/06/01 11:46:45;;;;;;;10.02;3.78;;;;;;;21.62;64.83;101403.78;4991133;28;20030;-64
2022/06/01 11:49:24;;;;;;;7.55;3.45;;;;;;;21.20;57.95;101400.59;4928939;29;20035;-72